sensor_id;sensor_type;location;lat;lon;timestamp;temperature;humidity
23560;DHT22;11958;50.836;4.438;2023-06-22T00:00:58;22.30;58.40
23560;DHT22;11958;50.836;4.438;2023-06-22T00:03:25;22.50;57.70
23560;DHT22;11958;50.836;4.438;2023-06-22T00:05:51;22.50;56.40
23560;DHT22;11958;50.836;4.438;2023-06-22T00:08:18;22.60;56.30
23560;DHT22;11958;50.836;4.438;2023-06-22T00:10:44;22.50;55.90
23560;DHT22;11958;50.836;4.438;2023-06-22T00:13:13;22.40;56.30
23560;DHT22;11958;50.836;4.438;2023-06-22T00:15:40;22.20;56.40
23560;DHT22;11958;50.836;4.438;2023-06-22T00:18:07;22.10;57.50
23560;DHT22;11958;50.836;4.438;2023-06-22T00:20:34;22.20;57.10
23560;DHT22;11958;50.836;4.438;2023-06-22T00:23:03;22.30;56.20
23560;DHT22;11958;50.836;4.438;2023-06-22T00:25:37;22.60;55.50
23560;DHT22;11958;50.836;4.438;2023-06-22T00:28:03;22.30;56.20
23560;DHT22;11958;50.836;4.438;2023-06-22T00:30:30;22.20;58.10
23560;DHT22;11958;50.836;4.438;2023-06-22T00:32:56;22.30;58.20
23560;DHT22;11958;50.836;4.438;2023-06-22T00:35:22;22.40;58.70
23560;DHT22;11958;50.836;4.438;2023-06-22T00:37:48;22.20;59.20
23560;DHT22;11958;50.836;4.438;2023-06-22T00:40:13;22.40;56.70
23560;DHT22;11958;50.836;4.438;2023-06-22T00:42:40;22.30;56.10
23560;DHT22;11958;50.836;4.438;2023-06-22T00:45:07;22.10;56.30
23560;DHT22;11958;50.836;4.438;2023-06-22T00:47:37;22.40;55.10
23560;DHT22;11958;50.836;4.438;2023-06-22T00:50:05;22.30;55.40
23560;DHT22;11958;50.836;4.438;2023-06-22T00:52:33;22.20;55.40
23560;DHT22;11958;50.836;4.438;2023-06-22T00:55:02;22.80;54.50
23560;DHT22;11958;50.836;4.438;2023-06-22T00:57:28;22.50;56.70
23560;DHT22;11958;50.836;4.438;2023-06-22T00:59:54;22.30;56.40
23560;DHT22;11958;50.836;4.438;2023-06-22T01:02:20;22.20;57.30
23560;DHT22;11958;50.836;4.438;2023-06-22T01:04:46;22.40;55.40
23560;DHT22;11958;50.836;4.438;2023-06-22T01:07:31;22.10;56.20
23560;DHT22;11958;50.836;4.438;2023-06-22T01:09:59;22.00;57.10
23560;DHT22;11958;50.836;4.438;2023-06-22T01:12:30;22.20;56.60
23560;DHT22;11958;50.836;4.438;2023-06-22T01:15:08;22.30;56.50
23560;DHT22;11958;50.836;4.438;2023-06-22T01:17:36;22.00;57.00
23560;DHT22;11958;50.836;4.438;2023-06-22T01:20:07;21.90;57.50
23560;DHT22;11958;50.836;4.438;2023-06-22T01:31:10;22.30;56.50
23560;DHT22;11958;50.836;4.438;2023-06-22T01:33:41;22.30;56.60
23560;DHT22;11958;50.836;4.438;2023-06-22T01:36:07;22.20;56.70
23560;DHT22;11958;50.836;4.438;2023-06-22T01:38:34;22.20;57.00
23560;DHT22;11958;50.836;4.438;2023-06-22T01:41:01;22.10;57.30
23560;DHT22;11958;50.836;4.438;2023-06-22T01:43:28;21.90;57.60
23560;DHT22;11958;50.836;4.438;2023-06-22T01:45:55;22.00;57.70
23560;DHT22;11958;50.836;4.438;2023-06-22T01:48:22;21.80;58.00
23560;DHT22;11958;50.836;4.438;2023-06-22T01:50:49;21.70;58.60
23560;DHT22;11958;50.836;4.438;2023-06-22T01:53:15;21.50;59.50
23560;DHT22;11958;50.836;4.438;2023-06-22T01:55:40;21.50;60.80
23560;DHT22;11958;50.836;4.438;2023-06-22T01:58:06;21.70;60.80
23560;DHT22;11958;50.836;4.438;2023-06-22T02:00:37;21.50;61.20
23560;DHT22;11958;50.836;4.438;2023-06-22T02:03:11;21.70;60.10
23560;DHT22;11958;50.836;4.438;2023-06-22T02:05:56;21.60;61.80
23560;DHT22;11958;50.836;4.438;2023-06-22T02:08:28;21.40;61.10
23560;DHT22;11958;50.836;4.438;2023-06-22T02:10:56;21.40;61.50
23560;DHT22;11958;50.836;4.438;2023-06-22T02:13:24;21.20;61.80
23560;DHT22;11958;50.836;4.438;2023-06-22T02:15:50;21.00;61.90
23560;DHT22;11958;50.836;4.438;2023-06-22T02:18:16;20.80;65.10
23560;DHT22;11958;50.836;4.438;2023-06-22T02:20:42;21.30;61.40
23560;DHT22;11958;50.836;4.438;2023-06-22T02:23:08;21.60;59.40
23560;DHT22;11958;50.836;4.438;2023-06-22T02:25:35;21.20;60.80
23560;DHT22;11958;50.836;4.438;2023-06-22T02:28:01;21.00;62.50
23560;DHT22;11958;50.836;4.438;2023-06-22T02:30:27;21.30;60.80
23560;DHT22;11958;50.836;4.438;2023-06-22T02:32:52;21.30;60.20
23560;DHT22;11958;50.836;4.438;2023-06-22T02:35:33;21.20;61.40
23560;DHT22;11958;50.836;4.438;2023-06-22T02:38:02;21.10;61.90
23560;DHT22;11958;50.836;4.438;2023-06-22T02:40:28;20.90;65.20
23560;DHT22;11958;50.836;4.438;2023-06-22T02:42:55;21.00;63.60
23560;DHT22;11958;50.836;4.438;2023-06-22T02:45:21;20.80;66.20
23560;DHT22;11958;50.836;4.438;2023-06-22T02:47:46;20.60;67.20
23560;DHT22;11958;50.836;4.438;2023-06-22T02:50:13;20.30;68.00
23560;DHT22;11958;50.836;4.438;2023-06-22T02:52:39;20.30;68.30
23560;DHT22;11958;50.836;4.438;2023-06-22T02:55:06;20.30;68.20
23560;DHT22;11958;50.836;4.438;2023-06-22T02:57:32;20.30;68.70
23560;DHT22;11958;50.836;4.438;2023-06-22T02:59:58;20.50;67.90
23560;DHT22;11958;50.836;4.438;2023-06-22T03:02:24;20.10;69.50
23560;DHT22;11958;50.836;4.438;2023-06-22T03:04:52;19.90;70.30
23560;DHT22;11958;50.836;4.438;2023-06-22T03:07:19;20.00;69.00
23560;DHT22;11958;50.836;4.438;2023-06-22T03:09:45;20.30;67.80
23560;DHT22;11958;50.836;4.438;2023-06-22T03:12:11;20.50;66.90
23560;DHT22;11958;50.836;4.438;2023-06-22T03:14:37;20.60;65.80
23560;DHT22;11958;50.836;4.438;2023-06-22T03:17:04;20.30;67.30
23560;DHT22;11958;50.836;4.438;2023-06-22T03:19:30;20.20;67.50
23560;DHT22;11958;50.836;4.438;2023-06-22T03:22:00;20.10;69.00
23560;DHT22;11958;50.836;4.438;2023-06-22T03:24:26;20.40;69.30
23560;DHT22;11958;50.836;4.438;2023-06-22T03:26:54;20.30;69.10
23560;DHT22;11958;50.836;4.438;2023-06-22T03:29:20;20.10;69.80
23560;DHT22;11958;50.836;4.438;2023-06-22T03:31:45;19.90;69.60
23560;DHT22;11958;50.836;4.438;2023-06-22T03:34:11;19.70;71.10
23560;DHT22;11958;50.836;4.438;2023-06-22T03:36:37;19.70;71.60
23560;DHT22;11958;50.836;4.438;2023-06-22T03:39:02;20.30;70.00
23560;DHT22;11958;50.836;4.438;2023-06-22T03:41:28;20.60;68.10
23560;DHT22;11958;50.836;4.438;2023-06-22T03:43:55;20.40;68.20
23560;DHT22;11958;50.836;4.438;2023-06-22T03:46:21;20.40;68.50
23560;DHT22;11958;50.836;4.438;2023-06-22T03:48:46;20.70;68.30
23560;DHT22;11958;50.836;4.438;2023-06-22T03:51:12;20.80;67.10
23560;DHT22;11958;50.836;4.438;2023-06-22T03:53:38;20.60;68.10
23560;DHT22;11958;50.836;4.438;2023-06-22T03:56:03;20.40;68.70
23560;DHT22;11958;50.836;4.438;2023-06-22T03:58:29;20.10;69.70
23560;DHT22;11958;50.836;4.438;2023-06-22T04:00:58;20.00;70.40
23560;DHT22;11958;50.836;4.438;2023-06-22T04:03:25;19.90;70.90
23560;DHT22;11958;50.836;4.438;2023-06-22T04:05:51;20.00;70.30
23560;DHT22;11958;50.836;4.438;2023-06-22T04:08:18;20.10;70.30
23560;DHT22;11958;50.836;4.438;2023-06-22T04:10:43;20.40;69.90
23560;DHT22;11958;50.836;4.438;2023-06-22T04:13:10;20.80;68.70
23560;DHT22;11958;50.836;4.438;2023-06-22T04:15:36;21.10;65.80
23560;DHT22;11958;50.836;4.438;2023-06-22T04:18:01;21.10;65.80
23560;DHT22;11958;50.836;4.438;2023-06-22T04:20:27;21.20;65.50
23560;DHT22;11958;50.836;4.438;2023-06-22T04:22:53;21.00;66.50
23560;DHT22;11958;50.836;4.438;2023-06-22T04:25:20;21.20;64.90
23560;DHT22;11958;50.836;4.438;2023-06-22T04:27:46;21.10;64.70
23560;DHT22;11958;50.836;4.438;2023-06-22T04:30:12;20.90;65.90
23560;DHT22;11958;50.836;4.438;2023-06-22T04:32:40;20.90;66.20
23560;DHT22;11958;50.836;4.438;2023-06-22T04:35:06;21.00;65.10
23560;DHT22;11958;50.836;4.438;2023-06-22T04:37:33;20.80;67.40
23560;DHT22;11958;50.836;4.438;2023-06-22T04:39:59;20.80;67.00
23560;DHT22;11958;50.836;4.438;2023-06-22T04:42:28;20.90;67.80
23560;DHT22;11958;50.836;4.438;2023-06-22T04:44:54;21.00;65.70
23560;DHT22;11958;50.836;4.438;2023-06-22T04:47:20;21.10;66.90
23560;DHT22;11958;50.836;4.438;2023-06-22T04:49:45;20.90;68.30
23560;DHT22;11958;50.836;4.438;2023-06-22T04:52:13;20.80;69.60
23560;DHT22;11958;50.836;4.438;2023-06-22T04:54:45;20.80;71.20
23560;DHT22;11958;50.836;4.438;2023-06-22T04:57:13;20.80;71.10
23560;DHT22;11958;50.836;4.438;2023-06-22T04:59:39;21.00;70.70
23560;DHT22;11958;50.836;4.438;2023-06-22T05:02:07;20.60;72.30
23560;DHT22;11958;50.836;4.438;2023-06-22T05:04:33;20.20;73.20
23560;DHT22;11958;50.836;4.438;2023-06-22T05:07:02;19.90;75.60
23560;DHT22;11958;50.836;4.438;2023-06-22T05:09:28;20.20;74.50
23560;DHT22;11958;50.836;4.438;2023-06-22T05:11:54;20.40;75.00
23560;DHT22;11958;50.836;4.438;2023-06-22T05:14:22;20.60;73.80
23560;DHT22;11958;50.836;4.438;2023-06-22T05:16:49;20.70;75.20
23560;DHT22;11958;50.836;4.438;2023-06-22T05:19:15;20.40;75.80
23560;DHT22;11958;50.836;4.438;2023-06-22T05:21:40;20.20;76.40
23560;DHT22;11958;50.836;4.438;2023-06-22T05:24:06;20.00;77.00
23560;DHT22;11958;50.836;4.438;2023-06-22T05:26:33;19.80;78.80
23560;DHT22;11958;50.836;4.438;2023-06-22T05:29:00;19.80;79.80
23560;DHT22;11958;50.836;4.438;2023-06-22T05:31:26;19.90;79.70
23560;DHT22;11958;50.836;4.438;2023-06-22T05:33:53;19.70;81.40
23560;DHT22;11958;50.836;4.438;2023-06-22T05:36:19;19.40;83.50
23560;DHT22;11958;50.836;4.438;2023-06-22T05:38:46;19.40;83.80
23560;DHT22;11958;50.836;4.438;2023-06-22T05:41:12;19.20;84.90
23560;DHT22;11958;50.836;4.438;2023-06-22T05:43:38;19.20;85.40
23560;DHT22;11958;50.836;4.438;2023-06-22T05:46:04;19.20;84.50
23560;DHT22;11958;50.836;4.438;2023-06-22T05:48:30;19.50;84.10
23560;DHT22;11958;50.836;4.438;2023-06-22T05:50:56;19.40;84.30
23560;DHT22;11958;50.836;4.438;2023-06-22T05:53:22;19.30;85.60
23560;DHT22;11958;50.836;4.438;2023-06-22T05:55:48;19.40;84.40
23560;DHT22;11958;50.836;4.438;2023-06-22T05:58:14;19.50;84.30
23560;DHT22;11958;50.836;4.438;2023-06-22T06:00:40;19.70;84.10
23560;DHT22;11958;50.836;4.438;2023-06-22T06:03:10;19.70;84.80
23560;DHT22;11958;50.836;4.438;2023-06-22T06:05:36;19.70;84.80
23560;DHT22;11958;50.836;4.438;2023-06-22T06:08:04;19.70;84.80
23560;DHT22;11958;50.836;4.438;2023-06-22T06:10:31;19.80;85.50
23560;DHT22;11958;50.836;4.438;2023-06-22T06:12:57;19.80;85.50
23560;DHT22;11958;50.836;4.438;2023-06-22T06:15:24;19.90;85.10
23560;DHT22;11958;50.836;4.438;2023-06-22T06:17:53;20.20;85.60
23560;DHT22;11958;50.836;4.438;2023-06-22T06:20:20;20.20;85.40
23560;DHT22;11958;50.836;4.438;2023-06-22T06:22:52;20.50;85.00
23560;DHT22;11958;50.836;4.438;2023-06-22T06:25:18;20.30;82.80
23560;DHT22;11958;50.836;4.438;2023-06-22T06:27:47;20.20;83.70
23560;DHT22;11958;50.836;4.438;2023-06-22T06:30:14;20.20;84.00
23560;DHT22;11958;50.836;4.438;2023-06-22T06:32:40;20.10;84.50
23560;DHT22;11958;50.836;4.438;2023-06-22T06:35:07;20.30;83.70
23560;DHT22;11958;50.836;4.438;2023-06-22T06:37:38;20.40;83.50
23560;DHT22;11958;50.836;4.438;2023-06-22T06:40:06;20.50;84.30
23560;DHT22;11958;50.836;4.438;2023-06-22T06:42:46;20.70;83.60
23560;DHT22;11958;50.836;4.438;2023-06-22T06:45:18;20.80;83.60
23560;DHT22;11958;50.836;4.438;2023-06-22T06:47:44;21.10;81.50
23560;DHT22;11958;50.836;4.438;2023-06-22T06:50:10;21.30;80.90
23560;DHT22;11958;50.836;4.438;2023-06-22T06:52:36;21.50;78.80
23560;DHT22;11958;50.836;4.438;2023-06-22T06:55:02;21.40;79.40
23560;DHT22;11958;50.836;4.438;2023-06-22T06:57:30;21.80;77.50
23560;DHT22;11958;50.836;4.438;2023-06-22T06:59:56;21.70;76.50
23560;DHT22;11958;50.836;4.438;2023-06-22T07:02:22;21.80;75.20
23560;DHT22;11958;50.836;4.438;2023-06-22T07:04:48;21.80;74.90
23560;DHT22;11958;50.836;4.438;2023-06-22T07:07:14;21.70;75.20
23560;DHT22;11958;50.836;4.438;2023-06-22T07:09:40;21.80;75.00
23560;DHT22;11958;50.836;4.438;2023-06-22T07:12:06;21.70;73.90
23560;DHT22;11958;50.836;4.438;2023-06-22T07:14:32;21.50;74.70
23560;DHT22;11958;50.836;4.438;2023-06-22T07:16:58;21.50;74.20
23560;DHT22;11958;50.836;4.438;2023-06-22T07:19:25;21.30;74.80
23560;DHT22;11958;50.836;4.438;2023-06-22T07:21:52;21.20;75.10
23560;DHT22;11958;50.836;4.438;2023-06-22T07:24:19;21.40;74.70
23560;DHT22;11958;50.836;4.438;2023-06-22T07:26:49;21.60;73.90
23560;DHT22;11958;50.836;4.438;2023-06-22T07:29:19;21.70;72.30
23560;DHT22;11958;50.836;4.438;2023-06-22T07:31:46;21.90;71.60
23560;DHT22;11958;50.836;4.438;2023-06-22T07:34:12;21.90;71.40
23560;DHT22;11958;50.836;4.438;2023-06-22T07:36:38;21.80;72.20
23560;DHT22;11958;50.836;4.438;2023-06-22T07:39:04;21.70;72.10
23560;DHT22;11958;50.836;4.438;2023-06-22T07:41:30;21.70;72.10
23560;DHT22;11958;50.836;4.438;2023-06-22T07:43:56;21.90;72.60
23560;DHT22;11958;50.836;4.438;2023-06-22T07:46:23;22.10;72.10
23560;DHT22;11958;50.836;4.438;2023-06-22T07:48:49;22.00;72.90
23560;DHT22;11958;50.836;4.438;2023-06-22T07:51:14;22.20;72.00
23560;DHT22;11958;50.836;4.438;2023-06-22T07:53:44;22.10;74.10
23560;DHT22;11958;50.836;4.438;2023-06-22T07:56:11;22.40;70.90
23560;DHT22;11958;50.836;4.438;2023-06-22T07:58:37;22.60;70.10
23560;DHT22;11958;50.836;4.438;2023-06-22T08:01:02;22.40;70.10
23560;DHT22;11958;50.836;4.438;2023-06-22T08:03:29;22.30;70.00
23560;DHT22;11958;50.836;4.438;2023-06-22T08:05:55;22.10;70.40
23560;DHT22;11958;50.836;4.438;2023-06-22T08:08:21;22.30;69.60
23560;DHT22;11958;50.836;4.438;2023-06-22T08:10:46;22.30;70.00
23560;DHT22;11958;50.836;4.438;2023-06-22T08:13:12;22.10;69.50
23560;DHT22;11958;50.836;4.438;2023-06-22T08:15:38;21.90;70.90
23560;DHT22;11958;50.836;4.438;2023-06-22T08:18:05;22.00;71.10
23560;DHT22;11958;50.836;4.438;2023-06-22T08:20:30;22.10;71.20
23560;DHT22;11958;50.836;4.438;2023-06-22T08:22:57;21.80;70.70
23560;DHT22;11958;50.836;4.438;2023-06-22T08:25:25;21.50;71.80
23560;DHT22;11958;50.836;4.438;2023-06-22T08:27:51;21.50;72.80
23560;DHT22;11958;50.836;4.438;2023-06-22T08:30:17;21.80;72.50
23560;DHT22;11958;50.836;4.438;2023-06-22T08:32:44;21.50;71.80
23560;DHT22;11958;50.836;4.438;2023-06-22T08:35:09;21.50;73.50
23560;DHT22;11958;50.836;4.438;2023-06-22T08:37:36;21.40;72.90
23560;DHT22;11958;50.836;4.438;2023-06-22T08:40:04;21.40;72.70
23560;DHT22;11958;50.836;4.438;2023-06-22T08:42:33;21.40;73.10
23560;DHT22;11958;50.836;4.438;2023-06-22T08:44:59;21.40;74.20
23560;DHT22;11958;50.836;4.438;2023-06-22T08:47:27;21.50;73.90
23560;DHT22;11958;50.836;4.438;2023-06-22T08:49:53;21.80;71.70
23560;DHT22;11958;50.836;4.438;2023-06-22T08:52:19;21.70;72.80
23560;DHT22;11958;50.836;4.438;2023-06-22T08:54:46;21.90;73.00
23560;DHT22;11958;50.836;4.438;2023-06-22T08:57:11;21.70;72.00
23560;DHT22;11958;50.836;4.438;2023-06-22T08:59:37;21.70;72.50
23560;DHT22;11958;50.836;4.438;2023-06-22T09:02:03;21.60;72.90
23560;DHT22;11958;50.836;4.438;2023-06-22T09:04:28;21.70;72.10
23560;DHT22;11958;50.836;4.438;2023-06-22T09:06:54;22.10;72.10
23560;DHT22;11958;50.836;4.438;2023-06-22T09:09:21;22.00;70.10
23560;DHT22;11958;50.836;4.438;2023-06-22T09:11:47;21.90;70.30
23560;DHT22;11958;50.836;4.438;2023-06-22T09:14:13;21.80;71.20
23560;DHT22;11958;50.836;4.438;2023-06-22T09:16:38;22.00;71.00
23560;DHT22;11958;50.836;4.438;2023-06-22T09:19:04;21.70;72.90
23560;DHT22;11958;50.836;4.438;2023-06-22T09:21:30;21.70;74.20
23560;DHT22;11958;50.836;4.438;2023-06-22T09:23:56;21.80;75.20
23560;DHT22;11958;50.836;4.438;2023-06-22T09:26:22;21.60;73.90
23560;DHT22;11958;50.836;4.438;2023-06-22T09:28:50;21.60;73.10
23560;DHT22;11958;50.836;4.438;2023-06-22T09:31:16;21.60;74.30
23560;DHT22;11958;50.836;4.438;2023-06-22T09:33:42;21.60;75.50
23560;DHT22;11958;50.836;4.438;2023-06-22T09:36:08;21.60;76.70
23560;DHT22;11958;50.836;4.438;2023-06-22T09:38:37;21.70;78.40
23560;DHT22;11958;50.836;4.438;2023-06-22T09:41:04;21.00;79.80
23560;DHT22;11958;50.836;4.438;2023-06-22T09:43:32;21.00;80.30
23560;DHT22;11958;50.836;4.438;2023-06-22T09:45:57;20.80;82.90
23560;DHT22;11958;50.836;4.438;2023-06-22T09:48:23;20.80;82.00
23560;DHT22;11958;50.836;4.438;2023-06-22T09:50:49;20.20;83.30
23560;DHT22;11958;50.836;4.438;2023-06-22T09:53:15;19.60;85.20
23560;DHT22;11958;50.836;4.438;2023-06-22T09:55:40;19.50;85.80
23560;DHT22;11958;50.836;4.438;2023-06-22T09:58:06;19.10;86.30
23560;DHT22;11958;50.836;4.438;2023-06-22T10:00:32;19.20;86.10
23560;DHT22;11958;50.836;4.438;2023-06-22T10:02:57;19.10;86.90
23560;DHT22;11958;50.836;4.438;2023-06-22T10:05:23;19.40;87.10
23560;DHT22;11958;50.836;4.438;2023-06-22T10:07:50;19.20;87.60
23560;DHT22;11958;50.836;4.438;2023-06-22T10:10:16;19.00;89.00
23560;DHT22;11958;50.836;4.438;2023-06-22T10:12:55;19.10;87.90
23560;DHT22;11958;50.836;4.438;2023-06-22T10:15:21;19.00;87.30
23560;DHT22;11958;50.836;4.438;2023-06-22T10:17:47;18.90;88.00
23560;DHT22;11958;50.836;4.438;2023-06-22T10:20:13;18.80;88.40
23560;DHT22;11958;50.836;4.438;2023-06-22T10:22:43;18.90;87.90
23560;DHT22;11958;50.836;4.438;2023-06-22T10:25:10;18.70;88.30
23560;DHT22;11958;50.836;4.438;2023-06-22T10:27:37;18.70;88.80
23560;DHT22;11958;50.836;4.438;2023-06-22T10:30:09;18.70;89.80
23560;DHT22;11958;50.836;4.438;2023-06-22T10:32:35;18.80;90.40
23560;DHT22;11958;50.836;4.438;2023-06-22T10:35:02;18.70;90.50
23560;DHT22;11958;50.836;4.438;2023-06-22T10:37:28;18.80;89.40
23560;DHT22;11958;50.836;4.438;2023-06-22T10:39:53;18.80;90.10
23560;DHT22;11958;50.836;4.438;2023-06-22T10:42:19;18.70;90.50
23560;DHT22;11958;50.836;4.438;2023-06-22T10:44:45;18.70;90.20
23560;DHT22;11958;50.836;4.438;2023-06-22T10:47:10;18.40;90.30
23560;DHT22;11958;50.836;4.438;2023-06-22T10:49:40;18.50;91.40
23560;DHT22;11958;50.836;4.438;2023-06-22T10:52:07;18.40;91.10
23560;DHT22;11958;50.836;4.438;2023-06-22T10:54:34;18.50;91.20
23560;DHT22;11958;50.836;4.438;2023-06-22T10:57:00;18.40;91.80
23560;DHT22;11958;50.836;4.438;2023-06-22T10:59:26;18.40;93.00
23560;DHT22;11958;50.836;4.438;2023-06-22T11:01:54;18.40;92.70
23560;DHT22;11958;50.836;4.438;2023-06-22T11:04:20;18.40;92.90
23560;DHT22;11958;50.836;4.438;2023-06-22T11:06:47;18.50;92.70
23560;DHT22;11958;50.836;4.438;2023-06-22T11:09:13;18.60;92.80
23560;DHT22;11958;50.836;4.438;2023-06-22T11:11:43;18.50;92.20
23560;DHT22;11958;50.836;4.438;2023-06-22T11:14:09;18.60;93.70
23560;DHT22;11958;50.836;4.438;2023-06-22T11:16:35;18.70;92.00
23560;DHT22;11958;50.836;4.438;2023-06-22T11:19:00;18.80;92.20
23560;DHT22;11958;50.836;4.438;2023-06-22T11:21:26;18.90;92.30
23560;DHT22;11958;50.836;4.438;2023-06-22T11:23:52;18.90;91.90
23560;DHT22;11958;50.836;4.438;2023-06-22T11:26:17;19.00;91.70
23560;DHT22;11958;50.836;4.438;2023-06-22T11:28:43;19.00;91.40
23560;DHT22;11958;50.836;4.438;2023-06-22T11:31:09;19.00;92.20
23560;DHT22;11958;50.836;4.438;2023-06-22T11:33:34;19.10;92.20
23560;DHT22;11958;50.836;4.438;2023-06-22T11:36:00;19.10;92.00
23560;DHT22;11958;50.836;4.438;2023-06-22T11:38:26;19.10;92.30
23560;DHT22;11958;50.836;4.438;2023-06-22T11:40:52;19.00;92.20
23560;DHT22;11958;50.836;4.438;2023-06-22T11:43:17;19.00;91.60
23560;DHT22;11958;50.836;4.438;2023-06-22T11:45:43;18.90;92.10
23560;DHT22;11958;50.836;4.438;2023-06-22T11:48:09;19.00;91.00
23560;DHT22;11958;50.836;4.438;2023-06-22T11:50:35;18.90;91.10
23560;DHT22;11958;50.836;4.438;2023-06-22T11:53:02;18.90;92.30
23560;DHT22;11958;50.836;4.438;2023-06-22T11:55:29;18.80;92.30
23560;DHT22;11958;50.836;4.438;2023-06-22T11:57:55;18.80;92.50
23560;DHT22;11958;50.836;4.438;2023-06-22T12:00:24;18.80;92.60
23560;DHT22;11958;50.836;4.438;2023-06-22T12:02:52;18.90;92.60
23560;DHT22;11958;50.836;4.438;2023-06-22T12:05:21;18.90;92.20
23560;DHT22;11958;50.836;4.438;2023-06-22T12:07:48;19.10;91.30
23560;DHT22;11958;50.836;4.438;2023-06-22T12:10:14;19.00;91.90
23560;DHT22;11958;50.836;4.438;2023-06-22T12:12:40;18.90;92.70
23560;DHT22;11958;50.836;4.438;2023-06-22T12:15:07;18.90;92.70
23560;DHT22;11958;50.836;4.438;2023-06-22T12:17:34;18.80;92.70
23560;DHT22;11958;50.836;4.438;2023-06-22T12:19:59;18.90;92.70
23560;DHT22;11958;50.836;4.438;2023-06-22T12:22:25;18.70;92.50
23560;DHT22;11958;50.836;4.438;2023-06-22T12:24:51;18.70;92.90
23560;DHT22;11958;50.836;4.438;2023-06-22T12:27:17;18.70;93.40
23560;DHT22;11958;50.836;4.438;2023-06-22T12:29:46;18.70;93.30
23560;DHT22;11958;50.836;4.438;2023-06-22T12:32:13;18.70;93.30
23560;DHT22;11958;50.836;4.438;2023-06-22T12:34:39;18.70;93.70
23560;DHT22;11958;50.836;4.438;2023-06-22T12:37:05;18.60;94.20
23560;DHT22;11958;50.836;4.438;2023-06-22T12:39:32;18.60;94.20
23560;DHT22;11958;50.836;4.438;2023-06-22T12:41:58;18.60;94.40
23560;DHT22;11958;50.836;4.438;2023-06-22T12:44:23;18.70;94.20
23560;DHT22;11958;50.836;4.438;2023-06-22T12:46:49;18.70;94.00
23560;DHT22;11958;50.836;4.438;2023-06-22T12:49:15;18.60;93.90
23560;DHT22;11958;50.836;4.438;2023-06-22T12:51:42;18.60;95.00
23560;DHT22;11958;50.836;4.438;2023-06-22T12:54:08;18.60;95.10
23560;DHT22;11958;50.836;4.438;2023-06-22T12:56:34;18.60;95.40
23560;DHT22;11958;50.836;4.438;2023-06-22T12:59:00;18.60;95.70
23560;DHT22;11958;50.836;4.438;2023-06-22T13:01:28;18.60;96.10
23560;DHT22;11958;50.836;4.438;2023-06-22T13:03:56;18.60;95.90
23560;DHT22;11958;50.836;4.438;2023-06-22T13:06:22;18.60;96.80
23560;DHT22;11958;50.836;4.438;2023-06-22T13:08:47;18.60;96.40
23560;DHT22;11958;50.836;4.438;2023-06-22T13:11:13;18.70;96.40
23560;DHT22;11958;50.836;4.438;2023-06-22T13:13:39;18.70;95.90
23560;DHT22;11958;50.836;4.438;2023-06-22T13:16:05;18.70;96.50
23560;DHT22;11958;50.836;4.438;2023-06-22T13:18:31;18.70;96.30
23560;DHT22;11958;50.836;4.438;2023-06-22T13:20:57;18.70;96.80
23560;DHT22;11958;50.836;4.438;2023-06-22T13:23:24;18.80;96.90
23560;DHT22;11958;50.836;4.438;2023-06-22T13:25:49;18.80;97.30
23560;DHT22;11958;50.836;4.438;2023-06-22T13:28:15;18.80;97.60
23560;DHT22;11958;50.836;4.438;2023-06-22T13:30:41;18.90;98.10
23560;DHT22;11958;50.836;4.438;2023-06-22T13:33:08;18.90;97.80
23560;DHT22;11958;50.836;4.438;2023-06-22T13:35:37;18.90;97.70
23560;DHT22;11958;50.836;4.438;2023-06-22T13:38:03;18.80;97.90
23560;DHT22;11958;50.836;4.438;2023-06-22T13:40:29;18.90;97.90
23560;DHT22;11958;50.836;4.438;2023-06-22T13:42:56;19.00;98.20
23560;DHT22;11958;50.836;4.438;2023-06-22T13:45:21;18.90;97.30
23560;DHT22;11958;50.836;4.438;2023-06-22T13:47:47;18.80;97.20
23560;DHT22;11958;50.836;4.438;2023-06-22T13:50:13;18.80;97.50
23560;DHT22;11958;50.836;4.438;2023-06-22T13:52:39;18.60;97.10
23560;DHT22;11958;50.836;4.438;2023-06-22T13:55:06;18.70;98.00
23560;DHT22;11958;50.836;4.438;2023-06-22T13:57:35;18.60;97.70
23560;DHT22;11958;50.836;4.438;2023-06-22T14:00:01;18.50;97.70
23560;DHT22;11958;50.836;4.438;2023-06-22T14:02:27;18.40;98.00
23560;DHT22;11958;50.836;4.438;2023-06-22T14:04:53;18.30;98.70
23560;DHT22;11958;50.836;4.438;2023-06-22T14:07:19;18.30;98.90
23560;DHT22;11958;50.836;4.438;2023-06-22T14:09:46;18.40;98.80
23560;DHT22;11958;50.836;4.438;2023-06-22T14:12:12;18.50;98.90
23560;DHT22;11958;50.836;4.438;2023-06-22T14:14:38;18.50;98.50
23560;DHT22;11958;50.836;4.438;2023-06-22T14:17:04;18.50;98.90
23560;DHT22;11958;50.836;4.438;2023-06-22T14:19:30;18.40;99.00
23560;DHT22;11958;50.836;4.438;2023-06-22T14:21:56;18.40;99.20
23560;DHT22;11958;50.836;4.438;2023-06-22T14:24:24;18.40;99.60
23560;DHT22;11958;50.836;4.438;2023-06-22T14:26:50;18.50;99.40
23560;DHT22;11958;50.836;4.438;2023-06-22T14:29:16;18.40;99.40
23560;DHT22;11958;50.836;4.438;2023-06-22T14:31:45;18.50;99.80
23560;DHT22;11958;50.836;4.438;2023-06-22T14:34:11;18.50;99.40
23560;DHT22;11958;50.836;4.438;2023-06-22T14:36:37;18.60;99.50
23560;DHT22;11958;50.836;4.438;2023-06-22T14:39:02;18.40;99.20
23560;DHT22;11958;50.836;4.438;2023-06-22T14:41:32;18.50;99.20
23560;DHT22;11958;50.836;4.438;2023-06-22T14:43:58;18.40;99.20
23560;DHT22;11958;50.836;4.438;2023-06-22T14:46:24;18.40;99.70
23560;DHT22;11958;50.836;4.438;2023-06-22T14:48:50;18.40;99.90
23560;DHT22;11958;50.836;4.438;2023-06-22T14:51:16;18.30;99.90
23560;DHT22;11958;50.836;4.438;2023-06-22T14:53:43;18.40;99.90
23560;DHT22;11958;50.836;4.438;2023-06-22T14:56:09;18.40;99.90
23560;DHT22;11958;50.836;4.438;2023-06-22T14:58:34;18.40;99.90
23560;DHT22;11958;50.836;4.438;2023-06-22T15:01:04;18.50;99.90
23560;DHT22;11958;50.836;4.438;2023-06-22T15:03:31;18.60;99.90
23560;DHT22;11958;50.836;4.438;2023-06-22T15:05:58;18.50;99.90
23560;DHT22;11958;50.836;4.438;2023-06-22T15:08:24;18.60;99.90
23560;DHT22;11958;50.836;4.438;2023-06-22T15:10:51;18.70;99.90
23560;DHT22;11958;50.836;4.438;2023-06-22T15:13:17;18.60;99.90
23560;DHT22;11958;50.836;4.438;2023-06-22T15:15:43;18.70;99.90
23560;DHT22;11958;50.836;4.438;2023-06-22T15:18:09;18.70;99.90
23560;DHT22;11958;50.836;4.438;2023-06-22T15:20:35;18.80;99.90
23560;DHT22;11958;50.836;4.438;2023-06-22T15:23:01;18.70;99.90
23560;DHT22;11958;50.836;4.438;2023-06-22T15:25:26;18.70;99.90
23560;DHT22;11958;50.836;4.438;2023-06-22T15:27:52;18.70;99.90
23560;DHT22;11958;50.836;4.438;2023-06-22T15:30:18;18.80;99.90
23560;DHT22;11958;50.836;4.438;2023-06-22T15:32:44;18.80;99.90
23560;DHT22;11958;50.836;4.438;2023-06-22T15:35:11;18.90;99.90